createdAt,value
2023-01-29T00:02:27.986Z,101454.30
2023-01-29T00:04:58.926Z,101451.74
2023-01-29T00:07:27.057Z,101447.95
2023-01-29T00:09:54.922Z,101437.52
2023-01-29T00:12:22.687Z,101437.51
2023-01-29T00:14:50.655Z,101437.59
2023-01-29T00:17:18.625Z,101432.11
2023-01-29T00:19:47.242Z,101430.23
2023-01-29T00:22:15.177Z,101424.21
2023-01-29T00:24:44.579Z,101412.64
2023-01-29T00:27:12.337Z,101414.86
2023-01-29T00:29:40.098Z,101416.08
2023-01-29T00:32:08.056Z,101411.41
2023-01-29T00:34:36.035Z,101404.23
2023-01-29T00:37:09.124Z,101404.92
2023-01-29T00:39:47.901Z,101401.92
2023-01-29T00:42:34.865Z,101402.08
2023-01-29T00:45:02.724Z,101402.95
2023-01-29T00:47:33.858Z,101396.41
2023-01-29T00:50:03.695Z,101393.79
2023-01-29T00:52:32.129Z,101389.44
2023-01-29T00:55:01.225Z,101389.16
2023-01-29T00:57:30.654Z,101385.39
2023-01-29T00:59:58.618Z,101383.60
2023-01-29T07:01:36.615Z,101215.91
2023-01-29T07:04:04.741Z,101217.27
2023-01-29T07:06:32.952Z,101213.27
2023-01-29T07:09:00.959Z,101208.84
2023-01-29T07:11:28.874Z,101203.14
2023-01-29T07:13:56.921Z,101187.94
2023-01-29T07:16:26.616Z,101181.96
2023-01-29T07:18:54.625Z,101184.02
2023-01-29T07:21:22.587Z,101189.48
2023-01-29T07:23:50.858Z,101193.00
2023-01-29T07:26:18.612Z,101196.79
2023-01-29T07:28:46.609Z,101194.48
2023-01-29T07:31:15.496Z,101195.59
2023-01-29T07:33:44.764Z,101201.44
2023-01-29T07:36:13.600Z,101207.24
2023-01-29T07:38:41.621Z,101208.42
2023-01-29T07:41:11.329Z,101207.36
2023-01-29T07:43:39.200Z,101202.20
2023-01-29T07:46:07.282Z,101205.09
2023-01-29T07:48:35.434Z,101212.52
2023-01-29T07:51:03.534Z,101219.44
2023-01-29T07:53:31.376Z,101222.73
2023-01-29T07:55:59.131Z,101215.73
2023-01-29T07:58:26.936Z,101208.95
2023-01-29T08:00:54.673Z,101205.42
2023-01-29T08:03:22.528Z,101203.02
2023-01-29T08:05:50.409Z,101201.45
2023-01-29T08:08:19.495Z,101204.11
2023-01-29T08:10:47.314Z,101199.56
2023-01-29T08:13:15.429Z,101200.92
2023-01-29T08:15:46.446Z,101194.08
2023-01-29T08:18:15.266Z,101184.58
2023-01-29T08:20:43.120Z,101181.06
2023-01-29T08:23:15.993Z,101179.10
2023-01-29T08:25:44.702Z,101178.67
2023-01-29T08:28:12.747Z,101185.67
2023-01-29T08:30:40.684Z,101182.22
2023-01-29T08:33:08.656Z,101179.28
2023-01-29T08:35:36.966Z,101177.33
2023-01-29T08:38:05.780Z,101173.50
2023-01-29T08:40:35.015Z,101170.83
2023-01-29T08:43:07.797Z,101176.28
2023-01-29T08:45:40.044Z,101178.92
2023-01-29T08:48:09.294Z,101180.94
2023-01-29T08:50:37.929Z,101181.77
2023-01-29T08:53:08.401Z,101178.87
2023-01-29T08:55:38.302Z,101172.22
2023-01-29T08:58:08.640Z,101168.41
2023-01-29T09:00:36.607Z,101162.14
2023-01-29T09:03:05.447Z,101158.05
2023-01-29T09:05:34.693Z,101154.90
2023-01-29T09:08:02.594Z,101154.30
2023-01-29T09:10:30.454Z,101148.55
2023-01-29T09:12:58.394Z,101145.84
2023-01-29T09:15:26.469Z,101138.67
2023-01-29T09:17:54.339Z,101139.27
2023-01-29T09:20:22.514Z,101134.96
2023-01-29T09:22:53.817Z,101137.89
2023-01-29T09:25:21.613Z,101135.73
2023-01-29T09:27:49.383Z,101135.36
2023-01-29T09:30:17.803Z,101131.48
2023-01-29T09:32:54.152Z,101134.69
2023-01-29T09:35:23.629Z,101130.45
2023-01-29T09:37:52.177Z,101135.05
2023-01-29T09:40:27.046Z,101132.70
2023-01-29T09:43:24.533Z,101125.02
2023-01-29T09:46:00.567Z,101113.52
2023-01-29T09:48:32.208Z,101114.54
2023-01-29T09:51:06.539Z,101113.81
2023-01-29T09:53:57.425Z,101107.88
2023-01-29T09:56:29.161Z,101108.11
2023-01-29T09:59:01.389Z,101103.83
2023-01-29T10:01:30.008Z,101103.09
2023-01-29T10:04:23.011Z,101106.05
2023-01-29T10:07:10.825Z,101107.88
2023-01-29T10:09:44.540Z,101102.52
2023-01-29T10:12:18.121Z,101103.35
2023-01-29T10:15:09.646Z,101097.17
2023-01-29T10:18:02.908Z,101092.73
2023-01-29T10:21:01.507Z,101091.58
2023-01-29T10:23:36.424Z,101084.84
2023-01-29T10:26:04.904Z,101078.08
2023-01-29T10:28:46.603Z,101079.02
2023-01-29T10:31:25.240Z,101084.40
2023-01-29T10:34:02.385Z,101077.13
2023-01-29T10:36:55.971Z,101078.20
2023-01-29T10:39:25.923Z,101074.23
2023-01-29T10:42:23.332Z,101074.20
2023-01-29T10:45:07.581Z,101071.02
2023-01-29T10:47:54.293Z,101066.58
2023-01-29T10:50:45.542Z,101063.14
2023-01-29T10:53:20.131Z,101065.00
2023-01-29T10:55:57.022Z,101066.11
2023-01-29T10:58:46.926Z,101060.89
2023-01-29T11:01:15.209Z,101057.52
2023-01-29T11:03:43.595Z,101053.29
2023-01-29T11:06:24.242Z,101049.39
2023-01-29T11:09:26.314Z,101046.76
2023-01-29T11:12:10.927Z,101043.34
2023-01-29T11:14:49.041Z,101040.05
2023-01-29T11:17:25.118Z,101039.30
2023-01-29T11:19:57.874Z,101040.39
2023-01-29T11:22:30.441Z,101033.88
2023-01-29T11:25:17.800Z,101028.33
2023-01-29T11:27:50.168Z,101019.27
2023-01-29T11:30:26.441Z,101015.27
2023-01-29T11:33:20.209Z,101008.46
2023-01-29T11:35:48.065Z,101002.70
2023-01-29T11:38:15.789Z,101002.42
2023-01-29T11:40:44.813Z,100996.45
2023-01-29T11:43:27.937Z,100987.55
2023-01-29T11:46:06.476Z,100980.23
2023-01-29T11:48:43.525Z,100973.07
2023-01-29T11:51:20.705Z,100974.71
2023-01-29T11:53:55.226Z,100970.64
2023-01-29T11:56:29.239Z,100970.94
2023-01-29T11:58:58.330Z,100970.27
2023-01-29T12:01:36.944Z,100968.16
2023-01-29T12:04:19.005Z,100961.77
2023-01-29T12:06:52.266Z,100957.28
2023-01-29T12:09:24.368Z,100951.59
2023-01-29T12:11:52.800Z,100944.20
2023-01-29T12:14:26.683Z,100941.42
2023-01-29T12:17:27.420Z,100937.50
2023-01-29T12:20:00.205Z,100933.20
2023-01-29T12:22:52.128Z,100927.87
2023-01-29T12:25:49.210Z,100926.05
2023-01-29T12:28:37.424Z,100923.52
2023-01-29T12:31:46.764Z,100925.37
2023-01-29T12:34:27.781Z,100923.27
2023-01-29T12:37:04.299Z,100927.36
2023-01-29T12:39:32.779Z,100916.44
2023-01-29T12:42:18.564Z,100911.30
2023-01-29T12:45:23.850Z,100908.52
2023-01-29T12:48:00.900Z,100901.42
2023-01-29T12:50:38.165Z,100899.09
2023-01-29T12:53:24.582Z,100892.77
2023-01-29T12:56:03.399Z,100890.33
2023-01-29T12:58:43.554Z,100891.07
2023-01-29T13:01:16.992Z,100890.95
2023-01-29T13:04:04.315Z,100882.73
2023-01-29T13:06:41.702Z,100885.69
2023-01-29T13:09:15.197Z,100893.57
2023-01-29T13:12:06.911Z,100896.03
2023-01-29T13:14:47.975Z,100898.52
2023-01-29T13:17:39.592Z,100897.49
2023-01-29T13:20:21.172Z,100898.23
2023-01-29T13:22:52.821Z,100902.83
2023-01-29T13:25:21.204Z,100906.77
2023-01-29T13:27:49.624Z,100907.33
2023-01-29T13:30:32.251Z,100911.42
2023-01-29T13:33:11.771Z,100913.29
2023-01-29T13:35:43.182Z,100909.83
2023-01-29T13:38:33.592Z,100909.87
2023-01-29T13:41:05.137Z,100903.29
2023-01-29T13:43:37.795Z,100892.21
2023-01-29T13:46:15.173Z,100880.92
2023-01-29T13:48:47.052Z,100875.21
2023-01-29T13:51:20.366Z,100869.20
2023-01-29T13:54:04.062Z,100866.30
2023-01-29T13:56:35.015Z,100868.77
2023-01-29T13:59:05.484Z,100862.27
2023-01-29T14:01:45.801Z,100859.69
2023-01-29T14:04:19.548Z,100860.06
2023-01-29T14:06:50.448Z,100866.41
2023-01-29T14:09:36.821Z,100869.30
2023-01-29T14:12:33.077Z,100883.17
2023-01-29T14:15:06.528Z,100886.88
2023-01-29T14:17:37.355Z,100889.30
2023-01-29T14:20:45.162Z,100892.67
2023-01-29T14:23:48.620Z,100889.77
2023-01-29T14:26:56.209Z,100893.84
2023-01-29T14:29:34.713Z,100890.21
2023-01-29T14:32:19.784Z,100882.63
2023-01-29T14:34:51.023Z,100877.89
2023-01-29T14:37:27.597Z,100875.09
2023-01-29T14:40:17.991Z,100872.88
2023-01-29T14:43:03.058Z,100871.54
2023-01-29T14:45:34.725Z,100865.91
2023-01-29T14:48:11.541Z,100859.98
2023-01-29T14:50:48.813Z,100851.33
2023-01-29T14:53:43.670Z,100849.34
2023-01-29T14:56:36.225Z,100856.34
2023-01-29T14:59:14.778Z,100865.33
2023-01-29T15:01:51.502Z,100869.13
2023-01-29T15:04:26.856Z,100870.70
2023-01-29T15:07:04.849Z,100874.94
2023-01-29T15:09:40.216Z,100874.42
2023-01-29T15:12:40.619Z,100872.52
2023-01-29T15:15:16.197Z,100871.39
2023-01-29T15:18:21.553Z,100875.19
2023-01-29T15:20:49.473Z,100868.74
2023-01-29T15:23:34.577Z,100866.16
2023-01-29T15:26:07.219Z,100862.77
2023-01-29T15:28:36.219Z,100863.23
2023-01-29T15:31:08.365Z,100848.98
2023-01-29T15:33:38.727Z,100846.60
2023-01-29T15:36:08.440Z,100834.06
2023-01-29T15:38:36.710Z,100835.66
2023-01-29T15:41:19.804Z,100832.92
2023-01-29T15:43:57.715Z,100826.28
2023-01-29T15:46:34.200Z,100828.73
2023-01-29T15:49:08.495Z,100826.80
2023-01-29T15:51:36.445Z,100826.18
2023-01-29T15:54:07.397Z,100823.30
2023-01-29T15:56:40.307Z,100819.21
2023-01-29T15:59:15.452Z,100819.37
2023-01-29T16:01:43.300Z,100816.77
2023-01-29T16:04:15.280Z,100814.91
2023-01-29T16:06:44.038Z,100815.80
2023-01-29T16:09:18.404Z,100813.00
2023-01-29T16:11:47.755Z,100812.09
2023-01-29T16:14:20.635Z,100810.73
2023-01-29T16:16:49.080Z,100808.55
2023-01-29T16:19:28.983Z,100813.36
2023-01-29T16:22:01.419Z,100822.13
2023-01-29T16:24:32.591Z,100823.91
2023-01-29T16:27:08.532Z,100823.88
2023-01-29T16:29:36.394Z,100818.47
2023-01-29T16:32:06.256Z,100818.21
2023-01-29T16:34:43.395Z,100820.84
2023-01-29T16:37:25.696Z,100817.92
2023-01-29T16:39:53.999Z,100817.26
2023-01-29T16:42:25.913Z,100822.13
2023-01-29T16:44:56.567Z,100822.02
2023-01-29T16:47:41.307Z,100826.04
2023-01-29T16:50:18.108Z,100823.02
2023-01-29T16:53:01.021Z,100822.52
2023-01-29T16:55:38.001Z,100819.23
2023-01-29T16:58:15.222Z,100812.88
2023-01-29T17:00:49.778Z,100812.44
2023-01-29T17:03:18.919Z,100812.82
2023-01-29T17:05:47.798Z,100807.82
2023-01-29T17:08:25.686Z,100803.59
2023-01-29T17:10:53.722Z,100804.34
2023-01-29T17:13:31.349Z,100803.15
2023-01-29T17:16:14.112Z,100795.98
2023-01-29T17:18:43.782Z,100792.27
2023-01-29T17:21:12.152Z,100783.80
2023-01-29T17:23:40.019Z,100781.66
2023-01-29T17:26:12.048Z,100783.46
2023-01-29T17:28:41.276Z,100780.91
2023-01-29T17:31:09.805Z,100780.77
2023-01-29T17:33:41.949Z,100779.17
2023-01-29T17:36:15.833Z,100770.80
2023-01-29T17:38:44.492Z,100758.02
2023-01-29T17:41:23.747Z,100760.14
2023-01-29T17:43:51.991Z,100752.36
2023-01-29T17:46:20.938Z,100746.91
2023-01-29T17:48:52.567Z,100739.72
2023-01-29T17:51:20.327Z,100729.42
2023-01-29T17:53:48.100Z,100723.92
2023-01-29T17:56:28.113Z,100716.77
2023-01-29T17:58:56.013Z,100711.75
2023-01-29T18:01:23.963Z,100709.35
2023-01-29T18:03:52.078Z,100706.25
2023-01-29T18:06:28.766Z,100701.38
2023-01-29T18:08:57.627Z,100697.55
2023-01-29T18:11:25.884Z,100694.92
2023-01-29T18:13:54.579Z,100680.66
2023-01-29T18:16:23.486Z,100680.20
2023-01-29T18:18:52.180Z,100675.45
2023-01-29T18:21:20.114Z,100675.95
2023-01-29T18:23:47.874Z,100677.95
2023-01-29T18:26:16.942Z,100680.13
2023-01-29T18:28:45.353Z,100672.83
2023-01-29T18:31:14.419Z,100672.05
2023-01-29T18:33:42.616Z,100669.66
2023-01-29T18:36:10.488Z,100674.67
2023-01-29T18:38:38.446Z,100667.36
2023-01-29T18:41:10.695Z,100668.25
2023-01-29T18:43:40.741Z,100661.61
2023-01-29T18:46:09.529Z,100665.14
2023-01-29T18:48:37.613Z,100665.02
2023-01-29T18:51:06.687Z,100663.05
2023-01-29T18:53:34.553Z,100659.10
2023-01-29T18:56:05.323Z,100661.68
2023-01-29T18:58:37.290Z,100660.52
2023-01-29T19:01:09.774Z,100655.35
2023-01-29T19:03:39.530Z,100649.18
2023-01-29T19:06:10.110Z,100652.15
2023-01-29T19:08:39.253Z,100652.17
2023-01-29T19:11:09.171Z,100651.92
2023-01-29T19:13:38.292Z,100646.53
2023-01-29T19:16:10.536Z,100647.98
2023-01-29T19:18:39.022Z,100653.15
2023-01-29T19:21:09.925Z,100654.36
2023-01-29T19:23:38.425Z,100650.17
2023-01-29T19:26:06.603Z,100652.79
2023-01-29T19:28:34.708Z,100648.14
2023-01-29T19:31:03.520Z,100645.88
2023-01-29T19:33:31.485Z,100642.98
2023-01-29T19:36:00.096Z,100637.70
2023-01-29T19:38:28.664Z,100638.98
2023-01-29T19:40:56.568Z,100635.19
2023-01-29T19:43:24.436Z,100631.48
2023-01-29T19:46:01.300Z,100628.39
2023-01-29T19:48:29.908Z,100624.66
2023-01-29T19:51:04.530Z,100620.14
2023-01-29T19:53:32.594Z,100611.61
2023-01-29T19:56:02.285Z,100613.27
2023-01-29T19:58:30.778Z,100610.52
2023-01-29T20:01:01.111Z,100608.53
2023-01-29T20:03:29.744Z,100604.07
2023-01-29T20:06:06.380Z,100599.75
2023-01-29T20:08:35.462Z,100594.69
2023-01-29T20:11:03.419Z,100591.39
2023-01-29T20:13:32.882Z,100585.92
2023-01-29T20:16:05.589Z,100582.94
2023-01-29T20:18:33.869Z,100577.88
2023-01-29T20:21:08.258Z,100577.53
2023-01-29T20:23:38.762Z,100565.02
2023-01-29T20:26:13.946Z,100558.81
2023-01-29T20:28:42.505Z,100557.36
2023-01-29T20:31:11.254Z,100556.59
2023-01-29T20:33:40.449Z,100554.05
2023-01-29T20:36:10.764Z,100542.67
2023-01-29T20:38:38.726Z,100537.25
2023-01-29T20:41:07.924Z,100533.02
2023-01-29T20:43:36.298Z,100527.68
2023-01-29T20:46:05.030Z,100521.89
2023-01-29T20:48:33.464Z,100515.70
2023-01-29T20:51:08.016Z,100510.00
2023-01-29T20:53:37.476Z,100506.46
2023-01-29T20:56:06.409Z,100501.93
2023-01-29T20:58:34.426Z,100497.27
2023-01-29T21:01:07.787Z,100491.95
2023-01-29T21:03:35.644Z,100490.48
2023-01-29T21:06:03.489Z,100488.77
2023-01-29T21:08:31.267Z,100489.77
2023-01-29T21:10:59.082Z,100488.77
2023-01-29T21:13:27.351Z,100488.14
2023-01-29T21:15:55.323Z,100490.66
2023-01-29T21:18:25.849Z,100491.98
2023-01-29T21:20:54.641Z,100486.02
2023-01-29T21:23:22.759Z,100489.63
2023-01-29T21:25:50.578Z,100489.59
2023-01-29T21:28:19.065Z,100484.39
2023-01-29T21:30:48.109Z,100480.48
2023-01-29T21:33:16.128Z,100479.52
2023-01-29T21:35:43.877Z,100480.38
2023-01-29T21:38:11.640Z,100479.62
2023-01-29T21:40:39.516Z,100475.98
2023-01-29T21:43:13.324Z,100474.05
2023-01-29T21:45:41.597Z,100472.15
2023-01-29T21:48:10.956Z,100463.98
2023-01-29T21:50:38.852Z,100462.36
2023-01-29T21:53:06.737Z,100462.05
2023-01-29T21:55:34.688Z,100458.09
2023-01-29T21:58:02.654Z,100452.93
2023-01-29T22:00:30.727Z,100447.58
2023-01-29T22:02:58.623Z,100439.11
2023-01-29T22:05:26.864Z,100436.20
2023-01-29T22:07:55.088Z,100433.03
2023-01-29T22:10:23.524Z,100426.24
2023-01-29T22:12:51.493Z,100425.98
2023-01-29T22:15:19.241Z,100422.98
2023-01-29T22:17:47.118Z,100415.77
2023-01-29T22:20:15.908Z,100418.00
2023-01-29T22:22:44.278Z,100412.34
2023-01-29T22:25:12.473Z,100406.78
2023-01-29T22:27:40.297Z,100397.89
2023-01-29T22:30:09.249Z,100386.45
2023-01-29T22:32:37.455Z,100379.98
2023-01-29T22:35:06.236Z,100379.05
2023-01-29T22:37:34.037Z,100378.63
2023-01-29T22:40:01.912Z,100380.11
2023-01-29T22:42:29.764Z,100369.63
2023-01-29T22:44:57.638Z,100362.13
2023-01-29T22:47:25.400Z,100347.79
2023-01-29T22:49:53.700Z,100338.93
2023-01-29T22:52:22.552Z,100329.80
2023-01-29T22:54:51.562Z,100323.89
2023-01-29T22:57:20.033Z,100320.21
2023-01-29T22:59:47.797Z,100314.09
2023-01-29T23:02:15.614Z,100306.62
2023-01-29T23:04:43.478Z,100301.36
2023-01-29T23:07:11.498Z,100291.77
2023-01-29T23:09:39.286Z,100285.01
2023-01-29T23:12:08.157Z,100280.33
2023-01-29T23:14:36.012Z,100280.00
2023-01-29T23:17:03.777Z,100272.94
2023-01-29T23:19:31.544Z,100270.54
2023-01-29T23:21:59.402Z,100263.77
2023-01-29T23:24:27.276Z,100264.05
2023-01-29T23:27:13.876Z,100260.58
2023-01-29T23:29:47.164Z,100256.70
2023-01-29T23:32:17.609Z,100257.73
2023-01-29T23:34:45.493Z,100254.06
2023-01-29T23:37:13.324Z,100253.95
2023-01-29T23:39:41.090Z,100245.09
2023-01-29T23:42:08.859Z,100239.30
2023-01-29T23:44:36.942Z,100239.65
2023-01-29T23:47:04.887Z,100239.48
2023-01-29T23:49:32.753Z,100231.65
2023-01-29T23:52:01.038Z,100233.92
2023-01-29T23:54:29.410Z,100228.07
2023-01-29T23:56:57.273Z,100229.05
2023-01-29T23:59:28.324Z,100227.95
